KLKV/LKV METAR and TAF weather

Enter ICAO airport designator
Station Type Date Time Source
KLKV METAR 2021/03/05 07:53 UTC NOAA

KLKV 050753Z AUTO 18005KT 10SM CLR 01/M06 A3018 RMK AO2 SLP232 T00061061 401221028 FZRANO


Station Type Date Time Source
KLKV Decoded METAR 2021/03/05 07:53 UTC NOAA

Lakeview, Lake County Airport, OR, United States (KLKV) 42-10N 120-24W
Mar 05, 2021 - 02:53 AM EST / 2021.03.05 0753 UTC
Wind: from the S (180 degrees) at 6 MPH (5 KT):0
Visibility: 10 mile(s):0
Sky conditions: clear
Temperature: 33.1 F (0.6 C)
Windchill: 28 F (-2 C):1
Dew Point: 21.0 F (-6.1 C)
Relative Humidity: 60%
Pressure (altimeter): 30.18 in. Hg (1022 hPa)
ob: KLKV 050753Z AUTO 18005KT 10SM CLR 01/M06 A3018 RMK AO2 SLP232 T00061061 401221028 FZRANO
cycle: 8

Station Type Date Time Source
KLKV TAF UTC NOAA

Error!

Example: see airport list